sensor_id;sensor_type;location;lat;lon;timestamp;P1;durP1;ratioP1;P2;durP2;ratioP2
78324;SDS011;67584;51.400;6.692;2023-11-21T00:02:22;14.55;;;8.57;;
78324;SDS011;67584;51.400;6.692;2023-11-21T00:04:48;14.32;;;9.52;;
78324;SDS011;67584;51.400;6.692;2023-11-21T00:07:14;16.92;;;9.95;;
78324;SDS011;67584;51.400;6.692;2023-11-21T00:09:40;12.10;;;7.75;;
78324;SDS011;67584;51.400;6.692;2023-11-21T00:12:07;14.90;;;9.10;;
78324;SDS011;67584;51.400;6.692;2023-11-21T00:14:38;12.65;;;7.93;;
78324;SDS011;67584;51.400;6.692;2023-11-21T00:19:30;15.70;;;8.02;;
78324;SDS011;67584;51.400;6.692;2023-11-21T00:21:56;12.10;;;7.30;;
78324;SDS011;67584;51.400;6.692;2023-11-21T00:24:23;14.75;;;9.13;;
78324;SDS011;67584;51.400;6.692;2023-11-21T00:26:49;11.07;;;8.48;;
78324;SDS011;67584;51.400;6.692;2023-11-21T00:29:16;12.40;;;8.32;;
78324;SDS011;67584;51.400;6.692;2023-11-21T00:31:43;15.50;;;8.57;;
78324;SDS011;67584;51.400;6.692;2023-11-21T00:34:11;13.13;;;8.55;;
78324;SDS011;67584;51.400;6.692;2023-11-21T00:36:37;11.68;;;7.70;;
78324;SDS011;67584;51.400;6.692;2023-11-21T00:39:03;10.90;;;7.68;;
78324;SDS011;67584;51.400;6.692;2023-11-21T00:41:30;11.98;;;8.43;;
78324;SDS011;67584;51.400;6.692;2023-11-21T00:43:57;12.77;;;7.88;;
78324;SDS011;67584;51.400;6.692;2023-11-21T00:46:22;10.32;;;7.50;;
78324;SDS011;67584;51.400;6.692;2023-11-21T00:48:49;13.13;;;8.95;;
78324;SDS011;67584;51.400;6.692;2023-11-21T00:51:15;13.18;;;8.23;;
78324;SDS011;67584;51.400;6.692;2023-11-21T00:53:42;11.35;;;7.78;;
78324;SDS011;67584;51.400;6.692;2023-11-21T00:56:08;11.43;;;7.65;;
78324;SDS011;67584;51.400;6.692;2023-11-21T00:58:34;12.73;;;9.27;;
78324;SDS011;67584;51.400;6.692;2023-11-21T01:01:00;11.45;;;8.20;;
78324;SDS011;67584;51.400;6.692;2023-11-21T01:03:26;11.73;;;7.47;;
78324;SDS011;67584;51.400;6.692;2023-11-21T01:05:51;12.98;;;7.15;;
78324;SDS011;67584;51.400;6.692;2023-11-21T01:08:17;10.75;;;8.02;;
78324;SDS011;67584;51.400;6.692;2023-11-21T01:10:43;11.88;;;8.18;;
78324;SDS011;67584;51.400;6.692;2023-11-21T01:13:08;13.75;;;8.73;;
78324;SDS011;67584;51.400;6.692;2023-11-21T01:15:36;13.48;;;8.60;;
78324;SDS011;67584;51.400;6.692;2023-11-21T01:18:02;11.93;;;8.05;;
78324;SDS011;67584;51.400;6.692;2023-11-21T01:20:28;14.65;;;8.85;;
78324;SDS011;67584;51.400;6.692;2023-11-21T01:22:54;15.02;;;9.25;;
78324;SDS011;67584;51.400;6.692;2023-11-21T01:25:20;17.27;;;9.45;;
78324;SDS011;67584;51.400;6.692;2023-11-21T01:27:47;14.30;;;8.05;;
78324;SDS011;67584;51.400;6.692;2023-11-21T01:30:13;13.82;;;8.30;;
78324;SDS011;67584;51.400;6.692;2023-11-21T01:32:39;18.40;;;8.73;;
78324;SDS011;67584;51.400;6.692;2023-11-21T01:35:05;15.57;;;8.82;;
78324;SDS011;67584;51.400;6.692;2023-11-21T01:37:32;12.95;;;7.65;;
78324;SDS011;67584;51.400;6.692;2023-11-21T01:40:01;13.77;;;8.30;;
78324;SDS011;67584;51.400;6.692;2023-11-21T01:42:30;16.00;;;8.85;;
78324;SDS011;67584;51.400;6.692;2023-11-21T01:44:55;16.63;;;8.45;;
78324;SDS011;67584;51.400;6.692;2023-11-21T01:47:21;14.93;;;8.35;;
78324;SDS011;67584;51.400;6.692;2023-11-21T01:49:47;11.32;;;7.65;;
78324;SDS011;67584;51.400;6.692;2023-11-21T01:52:13;13.13;;;8.23;;
78324;SDS011;67584;51.400;6.692;2023-11-21T01:54:40;15.50;;;8.18;;
78324;SDS011;67584;51.400;6.692;2023-11-21T01:57:06;14.65;;;8.02;;
78324;SDS011;67584;51.400;6.692;2023-11-21T01:59:35;15.07;;;8.65;;
78324;SDS011;67584;51.400;6.692;2023-11-21T02:02:03;14.75;;;8.38;;
78324;SDS011;67584;51.400;6.692;2023-11-21T02:04:33;13.13;;;8.23;;
78324;SDS011;67584;51.400;6.692;2023-11-21T02:07:01;14.32;;;8.20;;
78324;SDS011;67584;51.400;6.692;2023-11-21T02:09:27;13.30;;;7.40;;
78324;SDS011;67584;51.400;6.692;2023-11-21T02:11:54;14.25;;;8.43;;
78324;SDS011;67584;51.400;6.692;2023-11-21T02:14:20;16.02;;;8.77;;
78324;SDS011;67584;51.400;6.692;2023-11-21T02:16:50;14.93;;;8.73;;
78324;SDS011;67584;51.400;6.692;2023-11-21T02:19:20;13.13;;;8.32;;
78324;SDS011;67584;51.400;6.692;2023-11-21T02:21:57;12.55;;;8.10;;
78324;SDS011;67584;51.400;6.692;2023-11-21T02:24:25;13.25;;;8.82;;
78324;SDS011;67584;51.400;6.692;2023-11-21T02:26:52;12.48;;;8.00;;
78324;SDS011;67584;51.400;6.692;2023-11-21T02:29:18;12.93;;;7.03;;
78324;SDS011;67584;51.400;6.692;2023-11-21T02:31:47;13.82;;;7.70;;
78324;SDS011;67584;51.400;6.692;2023-11-21T02:34:16;14.07;;;8.55;;
78324;SDS011;67584;51.400;6.692;2023-11-21T02:36:46;16.75;;;8.73;;
78324;SDS011;67584;51.400;6.692;2023-11-21T02:39:14;13.85;;;8.25;;
78324;SDS011;67584;51.400;6.692;2023-11-21T02:41:41;13.57;;;8.50;;
78324;SDS011;67584;51.400;6.692;2023-11-21T02:44:07;14.88;;;8.48;;
78324;SDS011;67584;51.400;6.692;2023-11-21T02:46:33;14.95;;;8.68;;
78324;SDS011;67584;51.400;6.692;2023-11-21T02:49:03;15.25;;;8.43;;
78324;SDS011;67584;51.400;6.692;2023-11-21T02:51:32;14.50;;;8.88;;
78324;SDS011;67584;51.400;6.692;2023-11-21T02:53:58;15.93;;;9.07;;
78324;SDS011;67584;51.400;6.692;2023-11-21T02:56:26;15.65;;;9.30;;
78324;SDS011;67584;51.400;6.692;2023-11-21T02:58:55;19.63;;;10.15;;
78324;SDS011;67584;51.400;6.692;2023-11-21T03:01:21;18.55;;;9.57;;
78324;SDS011;67584;51.400;6.692;2023-11-21T03:03:48;16.55;;;8.73;;
78324;SDS011;67584;51.400;6.692;2023-11-21T03:06:16;17.10;;;9.77;;
78324;SDS011;67584;51.400;6.692;2023-11-21T03:08:45;19.48;;;9.60;;
78324;SDS011;67584;51.400;6.692;2023-11-21T03:11:12;22.35;;;10.95;;
78324;SDS011;67584;51.400;6.692;2023-11-21T03:13:41;18.50;;;9.73;;
78324;SDS011;67584;51.400;6.692;2023-11-21T03:16:10;19.63;;;10.10;;
78324;SDS011;67584;51.400;6.692;2023-11-21T03:18:39;19.00;;;9.95;;
78324;SDS011;67584;51.400;6.692;2023-11-21T03:21:05;19.10;;;10.10;;
78324;SDS011;67584;51.400;6.692;2023-11-21T03:23:34;16.92;;;9.27;;
78324;SDS011;67584;51.400;6.692;2023-11-21T03:26:02;16.42;;;9.68;;
78324;SDS011;67584;51.400;6.692;2023-11-21T03:28:28;16.25;;;9.55;;
78324;SDS011;67584;51.400;6.692;2023-11-21T03:30:55;18.35;;;10.13;;
78324;SDS011;67584;51.400;6.692;2023-11-21T03:33:22;20.48;;;10.65;;
78324;SDS011;67584;51.400;6.692;2023-11-21T03:35:48;17.98;;;9.73;;
78324;SDS011;67584;51.400;6.692;2023-11-21T03:38:14;21.58;;;9.82;;
78324;SDS011;67584;51.400;6.692;2023-11-21T03:40:41;18.67;;;10.25;;
78324;SDS011;67584;51.400;6.692;2023-11-21T03:43:07;18.05;;;10.00;;
78324;SDS011;67584;51.400;6.692;2023-11-21T03:45:32;17.35;;;9.80;;
78324;SDS011;67584;51.400;6.692;2023-11-21T03:47:59;17.70;;;9.13;;
78324;SDS011;67584;51.400;6.692;2023-11-21T03:50:28;19.48;;;10.15;;
78324;SDS011;67584;51.400;6.692;2023-11-21T03:52:54;15.23;;;9.48;;
78324;SDS011;67584;51.400;6.692;2023-11-21T03:55:20;21.35;;;11.30;;
78324;SDS011;67584;51.400;6.692;2023-11-21T03:57:46;18.10;;;10.02;;
78324;SDS011;67584;51.400;6.692;2023-11-21T04:00:12;20.80;;;10.27;;
78324;SDS011;67584;51.400;6.692;2023-11-21T04:02:38;15.88;;;8.82;;
78324;SDS011;67584;51.400;6.692;2023-11-21T04:05:04;20.45;;;10.30;;
78324;SDS011;67584;51.400;6.692;2023-11-21T04:07:32;19.35;;;9.20;;
78324;SDS011;67584;51.400;6.692;2023-11-21T04:09:59;19.27;;;10.65;;
78324;SDS011;67584;51.400;6.692;2023-11-21T04:12:25;18.17;;;10.27;;
78324;SDS011;67584;51.400;6.692;2023-11-21T04:14:50;19.02;;;9.43;;
78324;SDS011;67584;51.400;6.692;2023-11-21T04:17:19;18.70;;;9.95;;
78324;SDS011;67584;51.400;6.692;2023-11-21T04:19:45;19.52;;;10.30;;
78324;SDS011;67584;51.400;6.692;2023-11-21T04:22:11;15.23;;;9.15;;
78324;SDS011;67584;51.400;6.692;2023-11-21T04:24:37;20.27;;;10.52;;
78324;SDS011;67584;51.400;6.692;2023-11-21T04:27:03;17.60;;;10.30;;
78324;SDS011;67584;51.400;6.692;2023-11-21T04:29:29;21.67;;;10.05;;
78324;SDS011;67584;51.400;6.692;2023-11-21T04:31:55;18.58;;;9.90;;
78324;SDS011;67584;51.400;6.692;2023-11-21T04:34:20;18.08;;;9.48;;
78324;SDS011;67584;51.400;6.692;2023-11-21T04:36:46;18.23;;;10.27;;
78324;SDS011;67584;51.400;6.692;2023-11-21T04:39:12;18.30;;;9.90;;
78324;SDS011;67584;51.400;6.692;2023-11-21T04:41:37;20.38;;;10.52;;
78324;SDS011;67584;51.400;6.692;2023-11-21T04:44:05;21.10;;;9.52;;
78324;SDS011;67584;51.400;6.692;2023-11-21T04:46:31;22.13;;;10.30;;
78324;SDS011;67584;51.400;6.692;2023-11-21T04:48:57;19.02;;;10.25;;
78324;SDS011;67584;51.400;6.692;2023-11-21T04:51:23;16.48;;;10.32;;
78324;SDS011;67584;51.400;6.692;2023-11-21T04:53:49;14.55;;;9.63;;
78324;SDS011;67584;51.400;6.692;2023-11-21T04:56:15;16.02;;;10.27;;
78324;SDS011;67584;51.400;6.692;2023-11-21T04:58:41;17.65;;;9.63;;
78324;SDS011;67584;51.400;6.692;2023-11-21T05:01:07;17.88;;;10.52;;
78324;SDS011;67584;51.400;6.692;2023-11-21T05:03:33;16.60;;;9.13;;
78324;SDS011;67584;51.400;6.692;2023-11-21T05:06:02;19.98;;;10.18;;
78324;SDS011;67584;51.400;6.692;2023-11-21T05:08:30;19.20;;;9.68;;
78324;SDS011;67584;51.400;6.692;2023-11-21T05:10:56;23.02;;;11.63;;
78324;SDS011;67584;51.400;6.692;2023-11-21T05:13:22;15.20;;;9.43;;
78324;SDS011;67584;51.400;6.692;2023-11-21T05:15:52;18.88;;;10.15;;
78324;SDS011;67584;51.400;6.692;2023-11-21T05:18:23;20.83;;;11.10;;
78324;SDS011;67584;51.400;6.692;2023-11-21T05:20:52;19.05;;;10.98;;
78324;SDS011;67584;51.400;6.692;2023-11-21T05:23:18;21.80;;;11.60;;
78324;SDS011;67584;51.400;6.692;2023-11-21T05:25:44;21.65;;;11.95;;
78324;SDS011;67584;51.400;6.692;2023-11-21T05:28:11;22.45;;;11.55;;
78324;SDS011;67584;51.400;6.692;2023-11-21T05:30:37;20.00;;;11.38;;
78324;SDS011;67584;51.400;6.692;2023-11-21T05:33:04;19.63;;;10.75;;
78324;SDS011;67584;51.400;6.692;2023-11-21T05:35:30;20.08;;;10.45;;
78324;SDS011;67584;51.400;6.692;2023-11-21T05:37:56;22.83;;;11.10;;
78324;SDS011;67584;51.400;6.692;2023-11-21T05:40:22;26.25;;;12.70;;
78324;SDS011;67584;51.400;6.692;2023-11-21T05:42:47;24.20;;;11.50;;
78324;SDS011;67584;51.400;6.692;2023-11-21T05:45:13;35.22;;;13.75;;
78324;SDS011;67584;51.400;6.692;2023-11-21T05:50:10;30.33;;;11.35;;
78324;SDS011;67584;51.400;6.692;2023-11-21T05:52:37;32.72;;;11.63;;
78324;SDS011;67584;51.400;6.692;2023-11-21T05:55:04;36.20;;;12.55;;
78324;SDS011;67584;51.400;6.692;2023-11-21T05:57:33;62.75;;;15.18;;
78324;SDS011;67584;51.400;6.692;2023-11-21T06:00:07;52.55;;;15.27;;
78324;SDS011;67584;51.400;6.692;2023-11-21T06:02:47;93.72;;;18.92;;
78324;SDS011;67584;51.400;6.692;2023-11-21T06:05:18;52.55;;;15.43;;
78324;SDS011;67584;51.400;6.692;2023-11-21T06:07:45;72.15;;;16.63;;
78324;SDS011;67584;51.400;6.692;2023-11-21T06:10:11;46.05;;;13.93;;
78324;SDS011;67584;51.400;6.692;2023-11-21T06:12:39;50.55;;;15.15;;
78324;SDS011;67584;51.400;6.692;2023-11-21T06:15:08;44.42;;;13.15;;
78324;SDS011;67584;51.400;6.692;2023-11-21T06:17:38;59.72;;;16.30;;
78324;SDS011;67584;51.400;6.692;2023-11-21T06:20:05;51.85;;;14.45;;
78324;SDS011;67584;51.400;6.692;2023-11-21T06:22:39;49.63;;;14.80;;
78324;SDS011;67584;51.400;6.692;2023-11-21T06:25:10;38.75;;;12.65;;
78324;SDS011;67584;51.400;6.692;2023-11-21T06:27:47;37.90;;;14.32;;
78324;SDS011;67584;51.400;6.692;2023-11-21T06:30:14;33.92;;;13.55;;
78324;SDS011;67584;51.400;6.692;2023-11-21T06:32:40;29.98;;;12.80;;
78324;SDS011;67584;51.400;6.692;2023-11-21T06:35:07;41.95;;;13.82;;
78324;SDS011;67584;51.400;6.692;2023-11-21T06:37:36;59.38;;;15.75;;
78324;SDS011;67584;51.400;6.692;2023-11-21T06:40:01;38.20;;;12.85;;
78324;SDS011;67584;51.400;6.692;2023-11-21T06:42:29;30.42;;;13.15;;
78324;SDS011;67584;51.400;6.692;2023-11-21T06:44:55;31.35;;;13.52;;
78324;SDS011;67584;51.400;6.692;2023-11-21T06:47:24;30.17;;;12.50;;
78324;SDS011;67584;51.400;6.692;2023-11-21T06:49:50;30.90;;;12.45;;
78324;SDS011;67584;51.400;6.692;2023-11-21T06:52:17;29.73;;;11.82;;
78324;SDS011;67584;51.400;6.692;2023-11-21T06:54:43;32.17;;;12.32;;
78324;SDS011;67584;51.400;6.692;2023-11-21T06:57:09;26.17;;;12.82;;
78324;SDS011;67584;51.400;6.692;2023-11-21T06:59:34;27.17;;;12.13;;
78324;SDS011;67584;51.400;6.692;2023-11-21T07:02:00;35.15;;;13.95;;
78324;SDS011;67584;51.400;6.692;2023-11-21T07:04:26;45.15;;;13.90;;
78324;SDS011;67584;51.400;6.692;2023-11-21T07:06:55;37.35;;;14.27;;
78324;SDS011;67584;51.400;6.692;2023-11-21T07:09:21;32.97;;;14.18;;
78324;SDS011;67584;51.400;6.692;2023-11-21T07:11:53;27.25;;;13.27;;
78324;SDS011;67584;51.400;6.692;2023-11-21T07:14:19;38.17;;;14.25;;
78324;SDS011;67584;51.400;6.692;2023-11-21T07:16:46;34.55;;;13.63;;
78324;SDS011;67584;51.400;6.692;2023-11-21T07:19:12;47.10;;;15.35;;
78324;SDS011;67584;51.400;6.692;2023-11-21T07:21:39;109.32;;;21.38;;
78324;SDS011;67584;51.400;6.692;2023-11-21T07:24:05;36.00;;;13.88;;
78324;SDS011;67584;51.400;6.692;2023-11-21T07:26:32;52.55;;;13.82;;
78324;SDS011;67584;51.400;6.692;2023-11-21T07:28:59;46.33;;;15.75;;
78324;SDS011;67584;51.400;6.692;2023-11-21T07:31:25;89.10;;;20.00;;
78324;SDS011;67584;51.400;6.692;2023-11-21T07:33:51;68.13;;;17.77;;
78324;SDS011;67584;51.400;6.692;2023-11-21T07:36:17;102.90;;;20.90;;
78324;SDS011;67584;51.400;6.692;2023-11-21T07:38:45;50.05;;;15.05;;
78324;SDS011;67584;51.400;6.692;2023-11-21T07:41:11;93.00;;;21.25;;
78324;SDS011;67584;51.400;6.692;2023-11-21T07:43:40;92.28;;;19.45;;
78324;SDS011;67584;51.400;6.692;2023-11-21T07:46:07;49.28;;;15.68;;
78324;SDS011;67584;51.400;6.692;2023-11-21T07:48:33;52.88;;;16.42;;
78324;SDS011;67584;51.400;6.692;2023-11-21T07:51:00;64.20;;;16.02;;
78324;SDS011;67584;51.400;6.692;2023-11-21T07:53:27;51.75;;;13.73;;
78324;SDS011;67584;51.400;6.692;2023-11-21T07:55:55;48.83;;;13.32;;
78324;SDS011;67584;51.400;6.692;2023-11-21T07:58:27;59.80;;;14.68;;
78324;SDS011;67584;51.400;6.692;2023-11-21T08:00:53;26.80;;;10.70;;
78324;SDS011;67584;51.400;6.692;2023-11-21T08:03:19;24.80;;;10.38;;
78324;SDS011;67584;51.400;6.692;2023-11-21T08:05:44;28.90;;;12.88;;
78324;SDS011;67584;51.400;6.692;2023-11-21T08:08:10;37.45;;;13.43;;
78324;SDS011;67584;51.400;6.692;2023-11-21T08:10:36;23.58;;;12.23;;
78324;SDS011;67584;51.400;6.692;2023-11-21T08:13:02;31.92;;;12.90;;
78324;SDS011;67584;51.400;6.692;2023-11-21T08:15:29;29.30;;;12.85;;
78324;SDS011;67584;51.400;6.692;2023-11-21T08:17:57;25.35;;;12.13;;
78324;SDS011;67584;51.400;6.692;2023-11-21T08:20:24;24.20;;;11.55;;
78324;SDS011;67584;51.400;6.692;2023-11-21T08:22:50;25.50;;;11.23;;
78324;SDS011;67584;51.400;6.692;2023-11-21T08:25:16;24.02;;;10.65;;
78324;SDS011;67584;51.400;6.692;2023-11-21T08:27:44;25.08;;;12.02;;
78324;SDS011;67584;51.400;6.692;2023-11-21T08:30:11;36.58;;;13.07;;
78324;SDS011;67584;51.400;6.692;2023-11-21T08:32:37;27.48;;;12.13;;
78324;SDS011;67584;51.400;6.692;2023-11-21T08:35:03;27.70;;;12.60;;
78324;SDS011;67584;51.400;6.692;2023-11-21T08:37:30;25.77;;;12.48;;
78324;SDS011;67584;51.400;6.692;2023-11-21T08:39:58;29.92;;;14.68;;
78324;SDS011;67584;51.400;6.692;2023-11-21T08:42:27;26.88;;;12.80;;
78324;SDS011;67584;51.400;6.692;2023-11-21T08:44:55;28.38;;;13.35;;
78324;SDS011;67584;51.400;6.692;2023-11-21T08:47:23;32.88;;;14.10;;
78324;SDS011;67584;51.400;6.692;2023-11-21T08:49:50;31.08;;;12.88;;
78324;SDS011;67584;51.400;6.692;2023-11-21T08:52:18;28.38;;;14.15;;
78324;SDS011;67584;51.400;6.692;2023-11-21T08:54:47;31.42;;;14.00;;
78324;SDS011;67584;51.400;6.692;2023-11-21T08:57:13;27.90;;;12.73;;
78324;SDS011;67584;51.400;6.692;2023-11-21T08:59:39;24.80;;;12.02;;
78324;SDS011;67584;51.400;6.692;2023-11-21T09:02:05;22.92;;;12.48;;
78324;SDS011;67584;51.400;6.692;2023-11-21T09:04:31;27.55;;;12.15;;
78324;SDS011;67584;51.400;6.692;2023-11-21T09:06:56;28.70;;;13.38;;
78324;SDS011;67584;51.400;6.692;2023-11-21T09:09:25;22.23;;;11.93;;
78324;SDS011;67584;51.400;6.692;2023-11-21T09:11:50;29.40;;;12.35;;
78324;SDS011;67584;51.400;6.692;2023-11-21T09:14:16;24.58;;;13.35;;
78324;SDS011;67584;51.400;6.692;2023-11-21T09:16:42;27.60;;;12.48;;
78324;SDS011;67584;51.400;6.692;2023-11-21T09:19:08;24.33;;;11.90;;
78324;SDS011;67584;51.400;6.692;2023-11-21T09:21:34;23.67;;;12.82;;
78324;SDS011;67584;51.400;6.692;2023-11-21T09:24:00;25.02;;;11.95;;
78324;SDS011;67584;51.400;6.692;2023-11-21T09:26:25;27.75;;;12.45;;
78324;SDS011;67584;51.400;6.692;2023-11-21T09:28:51;25.20;;;13.07;;
78324;SDS011;67584;51.400;6.692;2023-11-21T09:31:17;29.15;;;13.70;;
78324;SDS011;67584;51.400;6.692;2023-11-21T09:33:47;25.85;;;12.00;;
78324;SDS011;67584;51.400;6.692;2023-11-21T09:36:13;28.15;;;13.95;;
78324;SDS011;67584;51.400;6.692;2023-11-21T09:38:42;24.05;;;12.38;;
78324;SDS011;67584;51.400;6.692;2023-11-21T09:41:21;25.48;;;13.00;;
78324;SDS011;67584;51.400;6.692;2023-11-21T09:43:53;27.15;;;12.82;;
78324;SDS011;67584;51.400;6.692;2023-11-21T09:46:22;28.33;;;13.80;;
78324;SDS011;67584;51.400;6.692;2023-11-21T09:48:50;24.60;;;12.75;;
78324;SDS011;67584;51.400;6.692;2023-11-21T09:51:21;32.75;;;13.50;;
78324;SDS011;67584;51.400;6.692;2023-11-21T09:53:52;22.90;;;11.43;;
78324;SDS011;67584;51.400;6.692;2023-11-21T09:56:18;26.27;;;12.60;;
78324;SDS011;67584;51.400;6.692;2023-11-21T09:58:52;28.73;;;13.65;;
78324;SDS011;67584;51.400;6.692;2023-11-21T10:01:19;26.55;;;12.02;;
78324;SDS011;67584;51.400;6.692;2023-11-21T10:03:46;23.88;;;12.80;;
78324;SDS011;67584;51.400;6.692;2023-11-21T10:06:12;24.33;;;12.45;;
78324;SDS011;67584;51.400;6.692;2023-11-21T10:08:39;22.48;;;11.68;;
78324;SDS011;67584;51.400;6.692;2023-11-21T10:11:06;27.38;;;12.00;;
78324;SDS011;67584;51.400;6.692;2023-11-21T10:13:33;28.20;;;12.50;;
78324;SDS011;67584;51.400;6.692;2023-11-21T10:16:00;21.80;;;11.13;;
78324;SDS011;67584;51.400;6.692;2023-11-21T10:18:30;23.27;;;11.27;;
78324;SDS011;67584;51.400;6.692;2023-11-21T10:20:59;25.77;;;12.40;;
78324;SDS011;67584;51.400;6.692;2023-11-21T10:23:25;21.85;;;11.95;;
78324;SDS011;67584;51.400;6.692;2023-11-21T10:25:52;25.05;;;12.93;;
78324;SDS011;67584;51.400;6.692;2023-11-21T10:28:18;23.52;;;11.55;;
78324;SDS011;67584;51.400;6.692;2023-11-21T10:30:45;19.25;;;10.48;;
78324;SDS011;67584;51.400;6.692;2023-11-21T10:33:11;21.52;;;11.80;;
78324;SDS011;67584;51.400;6.692;2023-11-21T10:35:47;22.20;;;11.10;;
78324;SDS011;67584;51.400;6.692;2023-11-21T10:38:19;20.13;;;10.65;;
78324;SDS011;67584;51.400;6.692;2023-11-21T10:40:48;20.90;;;11.38;;
78324;SDS011;67584;51.400;6.692;2023-11-21T10:43:15;21.13;;;11.20;;
78324;SDS011;67584;51.400;6.692;2023-11-21T10:45:41;19.42;;;10.88;;
78324;SDS011;67584;51.400;6.692;2023-11-21T10:48:08;20.67;;;11.90;;
78324;SDS011;67584;51.400;6.692;2023-11-21T10:50:37;23.27;;;11.82;;
78324;SDS011;67584;51.400;6.692;2023-11-21T10:53:03;24.65;;;12.88;;
78324;SDS011;67584;51.400;6.692;2023-11-21T10:55:30;26.35;;;11.23;;
78324;SDS011;67584;51.400;6.692;2023-11-21T10:58:01;19.63;;;10.98;;
78324;SDS011;67584;51.400;6.692;2023-11-21T11:00:29;20.20;;;10.30;;
78324;SDS011;67584;51.400;6.692;2023-11-21T11:02:56;20.27;;;11.38;;
78324;SDS011;67584;51.400;6.692;2023-11-21T11:05:24;19.55;;;11.45;;
78324;SDS011;67584;51.400;6.692;2023-11-21T11:07:51;22.33;;;10.85;;
78324;SDS011;67584;51.400;6.692;2023-11-21T11:10:28;20.90;;;10.65;;
78324;SDS011;67584;51.400;6.692;2023-11-21T11:12:57;20.38;;;11.85;;
78324;SDS011;67584;51.400;6.692;2023-11-21T11:15:24;21.48;;;10.98;;
78324;SDS011;67584;51.400;6.692;2023-11-21T11:17:53;21.77;;;10.95;;
78324;SDS011;67584;51.400;6.692;2023-11-21T11:20:23;25.20;;;12.27;;
78324;SDS011;67584;51.400;6.692;2023-11-21T11:30:32;22.73;;;11.68;;
78324;SDS011;67584;51.400;6.692;2023-11-21T11:38:33;20.88;;;11.10;;
78324;SDS011;67584;51.400;6.692;2023-11-21T11:41:04;20.80;;;11.38;;
78324;SDS011;67584;51.400;6.692;2023-11-21T11:43:32;21.55;;;10.85;;
78324;SDS011;67584;51.400;6.692;2023-11-21T11:45:59;18.85;;;10.57;;
78324;SDS011;67584;51.400;6.692;2023-11-21T11:48:28;23.13;;;11.57;;
78324;SDS011;67584;51.400;6.692;2023-11-21T11:51:04;16.88;;;11.23;;
78324;SDS011;67584;51.400;6.692;2023-11-21T11:53:40;20.90;;;11.85;;
78324;SDS011;67584;51.400;6.692;2023-11-21T11:58:49;25.77;;;15.18;;
78324;SDS011;67584;51.400;6.692;2023-11-21T12:01:18;30.35;;;15.70;;
78324;SDS011;67584;51.400;6.692;2023-11-21T12:04:05;31.65;;;16.88;;
78324;SDS011;67584;51.400;6.692;2023-11-21T12:06:39;34.00;;;17.00;;
78324;SDS011;67584;51.400;6.692;2023-11-21T12:09:06;32.75;;;17.08;;
78324;SDS011;67584;51.400;6.692;2023-11-21T12:11:32;31.80;;;17.17;;
78324;SDS011;67584;51.400;6.692;2023-11-21T12:14:00;36.97;;;19.00;;
78324;SDS011;67584;51.400;6.692;2023-11-21T12:16:32;39.00;;;19.00;;
78324;SDS011;67584;51.400;6.692;2023-11-21T12:18:58;39.28;;;17.67;;
78324;SDS011;67584;51.400;6.692;2023-11-21T12:21:23;39.83;;;18.98;;
78324;SDS011;67584;51.400;6.692;2023-11-21T12:23:50;32.70;;;17.25;;
78324;SDS011;67584;51.400;6.692;2023-11-21T12:26:16;33.92;;;16.10;;
78324;SDS011;67584;51.400;6.692;2023-11-21T12:28:41;32.55;;;17.55;;
78324;SDS011;67584;51.400;6.692;2023-11-21T12:31:07;37.50;;;17.92;;
78324;SDS011;67584;51.400;6.692;2023-11-21T12:33:33;28.20;;;16.10;;
78324;SDS011;67584;51.400;6.692;2023-11-21T12:36:00;28.10;;;15.77;;
78324;SDS011;67584;51.400;6.692;2023-11-21T12:38:33;31.35;;;15.98;;
78324;SDS011;67584;51.400;6.692;2023-11-21T12:41:00;29.00;;;15.93;;
78324;SDS011;67584;51.400;6.692;2023-11-21T12:43:26;26.40;;;15.05;;
78324;SDS011;67584;51.400;6.692;2023-11-21T12:46:04;29.55;;;15.15;;
78324;SDS011;67584;51.400;6.692;2023-11-21T12:48:36;28.77;;;14.23;;
78324;SDS011;67584;51.400;6.692;2023-11-21T12:51:04;28.33;;;14.02;;
78324;SDS011;67584;51.400;6.692;2023-11-21T12:53:32;30.98;;;14.48;;
78324;SDS011;67584;51.400;6.692;2023-11-21T12:56:09;26.92;;;12.75;;
78324;SDS011;67584;51.400;6.692;2023-11-21T12:58:36;24.67;;;13.93;;
78324;SDS011;67584;51.400;6.692;2023-11-21T13:01:10;25.00;;;13.48;;
78324;SDS011;67584;51.400;6.692;2023-11-21T13:03:43;26.35;;;12.93;;
78324;SDS011;67584;51.400;6.692;2023-11-21T13:06:10;22.92;;;12.10;;
78324;SDS011;67584;51.400;6.692;2023-11-21T13:08:37;21.00;;;11.95;;
78324;SDS011;67584;51.400;6.692;2023-11-21T13:11:04;23.40;;;13.02;;
78324;SDS011;67584;51.400;6.692;2023-11-21T13:13:31;22.77;;;11.60;;
78324;SDS011;67584;51.400;6.692;2023-11-21T13:16:01;19.55;;;12.68;;
78324;SDS011;67584;51.400;6.692;2023-11-21T13:18:29;25.00;;;12.38;;
78324;SDS011;67584;51.400;6.692;2023-11-21T13:20:57;25.55;;;11.05;;
78324;SDS011;67584;51.400;6.692;2023-11-21T13:23:24;18.10;;;10.15;;
78324;SDS011;67584;51.400;6.692;2023-11-21T13:25:51;18.65;;;10.57;;
78324;SDS011;67584;51.400;6.692;2023-11-21T13:28:17;19.75;;;9.30;;
78324;SDS011;67584;51.400;6.692;2023-11-21T13:30:46;17.65;;;8.88;;
78324;SDS011;67584;51.400;6.692;2023-11-21T13:33:13;17.45;;;8.50;;
78324;SDS011;67584;51.400;6.692;2023-11-21T13:35:43;16.77;;;8.68;;
78324;SDS011;67584;51.400;6.692;2023-11-21T13:38:14;15.07;;;8.65;;
78324;SDS011;67584;51.400;6.692;2023-11-21T13:40:47;15.70;;;7.90;;
78324;SDS011;67584;51.400;6.692;2023-11-21T13:43:19;14.60;;;8.27;;
78324;SDS011;67584;51.400;6.692;2023-11-21T13:45:47;15.55;;;8.75;;
78324;SDS011;67584;51.400;6.692;2023-11-21T13:48:23;14.45;;;8.50;;
78324;SDS011;67584;51.400;6.692;2023-11-21T13:50:56;13.30;;;8.82;;
78324;SDS011;67584;51.400;6.692;2023-11-21T13:53:46;15.93;;;8.52;;
78324;SDS011;67584;51.400;6.692;2023-11-21T13:56:15;14.35;;;8.57;;
78324;SDS011;67584;51.400;6.692;2023-11-21T13:58:50;18.13;;;9.70;;
78324;SDS011;67584;51.400;6.692;2023-11-21T14:01:20;17.17;;;10.10;;
78324;SDS011;67584;51.400;6.692;2023-11-21T14:03:57;16.90;;;10.18;;
78324;SDS011;67584;51.400;6.692;2023-11-21T14:06:50;13.52;;;8.38;;
78324;SDS011;67584;51.400;6.692;2023-11-21T14:09:20;14.98;;;8.55;;
78324;SDS011;67584;51.400;6.692;2023-11-21T14:14:15;13.57;;;8.18;;
78324;SDS011;67584;51.400;6.692;2023-11-21T14:16:41;13.20;;;8.50;;
78324;SDS011;67584;51.400;6.692;2023-11-21T14:19:07;14.65;;;8.93;;
78324;SDS011;67584;51.400;6.692;2023-11-21T14:21:40;13.63;;;8.10;;
78324;SDS011;67584;51.400;6.692;2023-11-21T14:24:08;13.07;;;8.82;;
78324;SDS011;67584;51.400;6.692;2023-11-21T14:26:35;13.38;;;8.20;;
78324;SDS011;67584;51.400;6.692;2023-11-21T14:29:01;14.02;;;8.13;;
78324;SDS011;67584;51.400;6.692;2023-11-21T14:31:27;13.15;;;8.57;;
78324;SDS011;67584;51.400;6.692;2023-11-21T14:33:55;14.85;;;9.02;;
78324;SDS011;67584;51.400;6.692;2023-11-21T14:36:22;13.57;;;8.02;;
78324;SDS011;67584;51.400;6.692;2023-11-21T14:38:49;14.23;;;8.75;;
78324;SDS011;67584;51.400;6.692;2023-11-21T14:41:14;11.93;;;8.38;;
78324;SDS011;67584;51.400;6.692;2023-11-21T14:43:40;12.40;;;8.25;;
78324;SDS011;67584;51.400;6.692;2023-11-21T14:46:06;15.48;;;8.38;;
78324;SDS011;67584;51.400;6.692;2023-11-21T14:48:35;15.15;;;9.50;;
78324;SDS011;67584;51.400;6.692;2023-11-21T14:51:21;15.52;;;10.05;;
78324;SDS011;67584;51.400;6.692;2023-11-21T14:53:52;13.15;;;8.95;;